sensor_id;sensor_type;location;lat;lon;timestamp;P1;durP1;ratioP1;P2;durP2;ratioP2
48963;SDS011;34776;48.180;16.420;2023-07-31T00:00:51;2.30;;;2.10;;
48963;SDS011;34776;48.180;16.420;2023-07-31T00:08:52;1.88;;;1.77;;
48963;SDS011;34776;48.180;16.420;2023-07-31T00:19:02;2.38;;;2.03;;
48963;SDS011;34776;48.180;16.420;2023-07-31T00:21:28;4.13;;;1.90;;
48963;SDS011;34776;48.180;16.420;2023-07-31T00:34:10;1.73;;;1.63;;
48963;SDS011;34776;48.180;16.420;2023-07-31T00:42:13;2.70;;;1.80;;
48963;SDS011;34776;48.180;16.420;2023-07-31T00:44:38;3.67;;;1.60;;
48963;SDS011;34776;48.180;16.420;2023-07-31T00:47:04;1.77;;;1.50;;
48963;SDS011;34776;48.180;16.420;2023-07-31T00:49:30;2.33;;;1.60;;
48963;SDS011;34776;48.180;16.420;2023-07-31T00:54:30;2.60;;;1.73;;
48963;SDS011;34776;48.180;16.420;2023-07-31T01:07:20;2.15;;;1.95;;
48963;SDS011;34776;48.180;16.420;2023-07-31T01:15:05;3.92;;;1.83;;
48963;SDS011;34776;48.180;16.420;2023-07-31T01:33:09;2.05;;;1.65;;
48963;SDS011;34776;48.180;16.420;2023-07-31T01:38:10;2.72;;;1.73;;
48963;SDS011;34776;48.180;16.420;2023-07-31T01:40:36;1.75;;;1.55;;
48963;SDS011;34776;48.180;16.420;2023-07-31T01:50:44;4.05;;;1.63;;
48963;SDS011;34776;48.180;16.420;2023-07-31T01:55:45;2.65;;;1.90;;
48963;SDS011;34776;48.180;16.420;2023-07-31T01:58:10;2.30;;;1.77;;
48963;SDS011;34776;48.180;16.420;2023-07-31T02:10:51;2.45;;;1.92;;
48963;SDS011;34776;48.180;16.420;2023-07-31T02:13:17;3.50;;;1.90;;
48963;SDS011;34776;48.180;16.420;2023-07-31T02:39:10;2.53;;;1.92;;
48963;SDS011;34776;48.180;16.420;2023-07-31T02:49:16;1.55;;;1.45;;
48963;SDS011;34776;48.180;16.420;2023-07-31T02:56:51;2.15;;;1.83;;
48963;SDS011;34776;48.180;16.420;2023-07-31T03:27:36;2.00;;;1.90;;
48963;SDS011;34776;48.180;16.420;2023-07-31T03:30:02;2.10;;;1.88;;
48963;SDS011;34776;48.180;16.420;2023-07-31T03:35:17;3.10;;;2.10;;
48963;SDS011;34776;48.180;16.420;2023-07-31T03:37:43;2.65;;;1.83;;
48963;SDS011;34776;48.180;16.420;2023-07-31T03:40:11;3.17;;;1.80;;
48963;SDS011;34776;48.180;16.420;2023-07-31T03:42:36;2.35;;;1.90;;
48963;SDS011;34776;48.180;16.420;2023-07-31T03:55:22;2.15;;;1.90;;
48963;SDS011;34776;48.180;16.420;2023-07-31T04:02:58;2.35;;;2.08;;
48963;SDS011;34776;48.180;16.420;2023-07-31T04:05:23;2.95;;;2.65;;
48963;SDS011;34776;48.180;16.420;2023-07-31T04:12:59;2.50;;;2.30;;
48963;SDS011;34776;48.180;16.420;2023-07-31T04:15:25;5.63;;;2.42;;
48963;SDS011;34776;48.180;16.420;2023-07-31T04:17:51;2.53;;;1.83;;
48963;SDS011;34776;48.180;16.420;2023-07-31T04:20:17;4.32;;;2.45;;
48963;SDS011;34776;48.180;16.420;2023-07-31T04:27:47;2.70;;;2.50;;
48963;SDS011;34776;48.180;16.420;2023-07-31T04:35:23;4.25;;;2.90;;
48963;SDS011;34776;48.180;16.420;2023-07-31T04:37:48;5.55;;;3.10;;
48963;SDS011;34776;48.180;16.420;2023-07-31T04:40:14;8.50;;;4.93;;
48963;SDS011;34776;48.180;16.420;2023-07-31T04:42:40;4.00;;;2.70;;
48963;SDS011;34776;48.180;16.420;2023-07-31T04:47:38;5.60;;;2.47;;
48963;SDS011;34776;48.180;16.420;2023-07-31T04:52:38;3.65;;;3.05;;
48963;SDS011;34776;48.180;16.420;2023-07-31T05:02:48;4.40;;;2.55;;
48963;SDS011;34776;48.180;16.420;2023-07-31T05:05:13;6.10;;;2.80;;
48963;SDS011;34776;48.180;16.420;2023-07-31T05:07:38;2.83;;;2.38;;
48963;SDS011;34776;48.180;16.420;2023-07-31T05:10:04;4.15;;;2.20;;
48963;SDS011;34776;48.180;16.420;2023-07-31T05:38:21;5.95;;;3.30;;
48963;SDS011;34776;48.180;16.420;2023-07-31T05:40:47;2.97;;;2.47;;
48963;SDS011;34776;48.180;16.420;2023-07-31T05:43:12;2.92;;;2.35;;
48963;SDS011;34776;48.180;16.420;2023-07-31T05:45:38;3.22;;;2.25;;
48963;SDS011;34776;48.180;16.420;2023-07-31T05:50:38;3.58;;;2.45;;
48963;SDS011;34776;48.180;16.420;2023-07-31T05:53:05;5.43;;;2.40;;
48963;SDS011;34776;48.180;16.420;2023-07-31T05:55:31;17.27;;;2.63;;
48963;SDS011;34776;48.180;16.420;2023-07-31T05:57:56;3.17;;;2.33;;
48963;SDS011;34776;48.180;16.420;2023-07-31T06:01:10;4.85;;;4.00;;
48963;SDS011;34776;48.180;16.420;2023-07-31T06:11:06;3.70;;;2.10;;
48963;SDS011;34776;48.180;16.420;2023-07-31T06:13:34;5.60;;;1.88;;
48963;SDS011;34776;48.180;16.420;2023-07-31T06:15:59;3.95;;;2.42;;
48963;SDS011;34776;48.180;16.420;2023-07-31T06:39:14;4.40;;;1.88;;
48963;SDS011;34776;48.180;16.420;2023-07-31T06:41:39;4.47;;;1.80;;
48963;SDS011;34776;48.180;16.420;2023-07-31T06:44:04;6.25;;;1.70;;
48963;SDS011;34776;48.180;16.420;2023-07-31T06:46:29;3.65;;;1.90;;
48963;SDS011;34776;48.180;16.420;2023-07-31T06:51:30;2.80;;;2.05;;
48963;SDS011;34776;48.180;16.420;2023-07-31T06:53:56;4.65;;;1.92;;
48963;SDS011;34776;48.180;16.420;2023-07-31T06:58:57;5.13;;;2.25;;
48963;SDS011;34776;48.180;16.420;2023-07-31T07:01:23;2.40;;;1.50;;
48963;SDS011;34776;48.180;16.420;2023-07-31T07:03:48;5.32;;;1.70;;
48963;SDS011;34776;48.180;16.420;2023-07-31T07:06:15;2.70;;;1.60;;
48963;SDS011;34776;48.180;16.420;2023-07-31T07:08:42;4.32;;;1.73;;
48963;SDS011;34776;48.180;16.420;2023-07-31T07:11:07;3.97;;;1.60;;
48963;SDS011;34776;48.180;16.420;2023-07-31T07:13:34;3.00;;;1.85;;
48963;SDS011;34776;48.180;16.420;2023-07-31T07:15:59;4.60;;;2.15;;
48963;SDS011;34776;48.180;16.420;2023-07-31T07:18:25;6.43;;;2.13;;
48963;SDS011;34776;48.180;16.420;2023-07-31T07:20:50;3.00;;;1.60;;
48963;SDS011;34776;48.180;16.420;2023-07-31T07:23:17;1.70;;;1.27;;
48963;SDS011;34776;48.180;16.420;2023-07-31T09:03:54;6.03;;;1.85;;
48963;SDS011;34776;48.180;16.420;2023-07-31T10:56:36;3.20;;;1.38;;
48963;SDS011;34776;48.180;16.420;2023-07-31T10:59:03;2.78;;;1.60;;
48963;SDS011;34776;48.180;16.420;2023-07-31T12:04:27;2.75;;;1.77;;
48963;SDS011;34776;48.180;16.420;2023-07-31T12:06:53;3.90;;;1.77;;
48963;SDS011;34776;48.180;16.420;2023-07-31T12:09:18;2.17;;;1.75;;
48963;SDS011;34776;48.180;16.420;2023-07-31T12:11:44;3.47;;;1.92;;
48963;SDS011;34776;48.180;16.420;2023-07-31T12:14:26;2.63;;;1.70;;
48963;SDS011;34776;48.180;16.420;2023-07-31T12:16:56;6.15;;;1.60;;
48963;SDS011;34776;48.180;16.420;2023-07-31T12:19:24;3.42;;;1.70;;
48963;SDS011;34776;48.180;16.420;2023-07-31T12:22:14;3.25;;;1.73;;
48963;SDS011;34776;48.180;16.420;2023-07-31T12:24:41;2.67;;;1.67;;
48963;SDS011;34776;48.180;16.420;2023-07-31T12:27:13;4.90;;;1.73;;
48963;SDS011;34776;48.180;16.420;2023-07-31T12:29:41;2.95;;;1.85;;
48963;SDS011;34776;48.180;16.420;2023-07-31T12:32:24;4.50;;;1.90;;
48963;SDS011;34776;48.180;16.420;2023-07-31T12:34:54;3.60;;;1.88;;
48963;SDS011;34776;48.180;16.420;2023-07-31T12:37:23;5.38;;;3.05;;
48963;SDS011;34776;48.180;16.420;2023-07-31T12:39:49;4.20;;;2.63;;
48963;SDS011;34776;48.180;16.420;2023-07-31T12:42:16;4.25;;;1.90;;
48963;SDS011;34776;48.180;16.420;2023-07-31T12:44:42;5.95;;;1.88;;
48963;SDS011;34776;48.180;16.420;2023-07-31T12:47:08;2.20;;;1.50;;
48963;SDS011;34776;48.180;16.420;2023-07-31T12:49:33;3.00;;;1.75;;
48963;SDS011;34776;48.180;16.420;2023-07-31T12:51:58;4.22;;;1.73;;
48963;SDS011;34776;48.180;16.420;2023-07-31T12:54:24;2.95;;;1.70;;
48963;SDS011;34776;48.180;16.420;2023-07-31T12:56:49;2.72;;;1.98;;
48963;SDS011;34776;48.180;16.420;2023-07-31T12:59:14;5.40;;;1.80;;
48963;SDS011;34776;48.180;16.420;2023-07-31T13:04:15;1.98;;;1.60;;
48963;SDS011;34776;48.180;16.420;2023-07-31T13:06:42;2.03;;;1.65;;
48963;SDS011;34776;48.180;16.420;2023-07-31T13:09:07;1.92;;;1.60;;
48963;SDS011;34776;48.180;16.420;2023-07-31T13:11:34;1.50;;;1.40;;
48963;SDS011;34776;48.180;16.420;2023-07-31T13:13:59;3.50;;;1.73;;
48963;SDS011;34776;48.180;16.420;2023-07-31T13:16:25;2.58;;;1.80;;
48963;SDS011;34776;48.180;16.420;2023-07-31T13:19:00;7.35;;;1.77;;
48963;SDS011;34776;48.180;16.420;2023-07-31T13:21:28;4.85;;;1.70;;
48963;SDS011;34776;48.180;16.420;2023-07-31T13:23:54;2.17;;;1.63;;
48963;SDS011;34776;48.180;16.420;2023-07-31T13:26:19;3.85;;;1.70;;
48963;SDS011;34776;48.180;16.420;2023-07-31T13:28:44;2.10;;;1.65;;
48963;SDS011;34776;48.180;16.420;2023-07-31T13:31:11;2.70;;;1.50;;
48963;SDS011;34776;48.180;16.420;2023-07-31T13:33:36;2.75;;;1.70;;
48963;SDS011;34776;48.180;16.420;2023-07-31T13:36:03;2.05;;;1.70;;
48963;SDS011;34776;48.180;16.420;2023-07-31T13:38:28;3.60;;;1.75;;
48963;SDS011;34776;48.180;16.420;2023-07-31T13:40:54;2.92;;;1.60;;
48963;SDS011;34776;48.180;16.420;2023-07-31T13:43:19;2.40;;;1.95;;
48963;SDS011;34776;48.180;16.420;2023-07-31T13:45:44;2.70;;;1.50;;
48963;SDS011;34776;48.180;16.420;2023-07-31T13:48:10;1.58;;;1.48;;
48963;SDS011;34776;48.180;16.420;2023-07-31T13:50:35;1.97;;;1.47;;
48963;SDS011;34776;48.180;16.420;2023-07-31T13:53:00;2.05;;;1.75;;
48963;SDS011;34776;48.180;16.420;2023-07-31T13:55:26;1.60;;;1.50;;
48963;SDS011;34776;48.180;16.420;2023-07-31T13:57:51;3.33;;;1.65;;
48963;SDS011;34776;48.180;16.420;2023-07-31T14:00:18;2.95;;;1.90;;
48963;SDS011;34776;48.180;16.420;2023-07-31T14:02:45;1.70;;;1.60;;
48963;SDS011;34776;48.180;16.420;2023-07-31T14:05:10;2.67;;;1.70;;
48963;SDS011;34776;48.180;16.420;2023-07-31T14:07:35;3.92;;;1.98;;
48963;SDS011;34776;48.180;16.420;2023-07-31T14:10:01;1.92;;;1.38;;
48963;SDS011;34776;48.180;16.420;2023-07-31T14:12:28;2.75;;;1.80;;
48963;SDS011;34776;48.180;16.420;2023-07-31T14:14:54;3.50;;;1.95;;
48963;SDS011;34776;48.180;16.420;2023-07-31T14:17:19;1.98;;;1.70;;
48963;SDS011;34776;48.180;16.420;2023-07-31T14:19:45;3.10;;;2.17;;
48963;SDS011;34776;48.180;16.420;2023-07-31T14:22:10;2.60;;;2.00;;
48963;SDS011;34776;48.180;16.420;2023-07-31T14:24:36;1.83;;;1.70;;
48963;SDS011;34776;48.180;16.420;2023-07-31T14:27:01;3.83;;;2.10;;
48963;SDS011;34776;48.180;16.420;2023-07-31T14:29:26;3.38;;;1.77;;
48963;SDS011;34776;48.180;16.420;2023-07-31T14:31:52;2.13;;;1.73;;
48963;SDS011;34776;48.180;16.420;2023-07-31T14:34:17;5.43;;;2.10;;
48963;SDS011;34776;48.180;16.420;2023-07-31T14:36:43;3.13;;;2.10;;
48963;SDS011;34776;48.180;16.420;2023-07-31T14:39:09;3.10;;;2.55;;
48963;SDS011;34776;48.180;16.420;2023-07-31T14:41:36;2.55;;;1.92;;
48963;SDS011;34776;48.180;16.420;2023-07-31T14:44:01;2.75;;;2.00;;
48963;SDS011;34776;48.180;16.420;2023-07-31T14:46:26;3.20;;;2.03;;
48963;SDS011;34776;48.180;16.420;2023-07-31T14:48:52;3.10;;;1.97;;
48963;SDS011;34776;48.180;16.420;2023-07-31T14:51:17;4.57;;;2.17;;
48963;SDS011;34776;48.180;16.420;2023-07-31T14:53:43;2.42;;;1.70;;
48963;SDS011;34776;48.180;16.420;2023-07-31T14:56:08;3.65;;;2.20;;
48963;SDS011;34776;48.180;16.420;2023-07-31T14:58:33;2.28;;;1.75;;
48963;SDS011;34776;48.180;16.420;2023-07-31T15:00:59;2.42;;;1.70;;
48963;SDS011;34776;48.180;16.420;2023-07-31T15:03:24;4.20;;;1.75;;
48963;SDS011;34776;48.180;16.420;2023-07-31T15:05:50;2.40;;;1.90;;
48963;SDS011;34776;48.180;16.420;2023-07-31T15:08:16;1.98;;;1.75;;
48963;SDS011;34776;48.180;16.420;2023-07-31T15:10:42;2.03;;;1.80;;
48963;SDS011;34776;48.180;16.420;2023-07-31T15:13:08;2.83;;;1.90;;
48963;SDS011;34776;48.180;16.420;2023-07-31T15:15:33;2.78;;;1.80;;
48963;SDS011;34776;48.180;16.420;2023-07-31T15:17:58;2.10;;;1.77;;
48963;SDS011;34776;48.180;16.420;2023-07-31T15:20:24;2.60;;;1.80;;
48963;SDS011;34776;48.180;16.420;2023-07-31T15:22:49;2.78;;;1.88;;
48963;SDS011;34776;48.180;16.420;2023-07-31T15:25:14;4.45;;;1.90;;
48963;SDS011;34776;48.180;16.420;2023-07-31T15:27:40;3.35;;;1.92;;
48963;SDS011;34776;48.180;16.420;2023-07-31T15:30:05;1.80;;;1.70;;
48963;SDS011;34776;48.180;16.420;2023-07-31T15:32:31;2.08;;;1.75;;
48963;SDS011;34776;48.180;16.420;2023-07-31T15:34:57;5.40;;;2.58;;
48963;SDS011;34776;48.180;16.420;2023-07-31T15:37:22;3.90;;;1.87;;
48963;SDS011;34776;48.180;16.420;2023-07-31T15:39:48;3.10;;;2.10;;
48963;SDS011;34776;48.180;16.420;2023-07-31T15:42:13;3.03;;;2.33;;
48963;SDS011;34776;48.180;16.420;2023-07-31T15:44:38;5.28;;;1.35;;
48963;SDS011;34776;48.180;16.420;2023-07-31T15:47:04;1.75;;;1.60;;
48963;SDS011;34776;48.180;16.420;2023-07-31T15:49:29;2.25;;;1.95;;
48963;SDS011;34776;48.180;16.420;2023-07-31T15:51:55;3.60;;;1.95;;
48963;SDS011;34776;48.180;16.420;2023-07-31T15:54:20;2.78;;;2.00;;
48963;SDS011;34776;48.180;16.420;2023-07-31T15:56:50;2.40;;;1.77;;
48963;SDS011;34776;48.180;16.420;2023-07-31T15:59:15;3.72;;;1.88;;
48963;SDS011;34776;48.180;16.420;2023-07-31T16:01:40;4.32;;;2.25;;
48963;SDS011;34776;48.180;16.420;2023-07-31T16:04:05;2.90;;;2.10;;
48963;SDS011;34776;48.180;16.420;2023-07-31T16:06:31;3.57;;;2.00;;
48963;SDS011;34776;48.180;16.420;2023-07-31T16:08:56;2.00;;;1.80;;
48963;SDS011;34776;48.180;16.420;2023-07-31T16:11:22;2.45;;;1.70;;
48963;SDS011;34776;48.180;16.420;2023-07-31T16:13:47;2.85;;;2.10;;
48963;SDS011;34776;48.180;16.420;2023-07-31T16:16:13;2.75;;;2.00;;
48963;SDS011;34776;48.180;16.420;2023-07-31T16:18:38;6.37;;;2.10;;
48963;SDS011;34776;48.180;16.420;2023-07-31T16:21:03;4.38;;;2.00;;
48963;SDS011;34776;48.180;16.420;2023-07-31T16:23:31;8.77;;;2.28;;
48963;SDS011;34776;48.180;16.420;2023-07-31T16:25:57;3.35;;;2.20;;
48963;SDS011;34776;48.180;16.420;2023-07-31T16:28:22;2.25;;;2.05;;
48963;SDS011;34776;48.180;16.420;2023-07-31T16:30:48;3.28;;;2.17;;
48963;SDS011;34776;48.180;16.420;2023-07-31T16:33:13;2.13;;;1.92;;
48963;SDS011;34776;48.180;16.420;2023-07-31T16:35:40;2.83;;;2.20;;
48963;SDS011;34776;48.180;16.420;2023-07-31T16:38:05;2.10;;;1.80;;
48963;SDS011;34776;48.180;16.420;2023-07-31T16:40:31;2.35;;;1.77;;
48963;SDS011;34776;48.180;16.420;2023-07-31T16:42:56;3.83;;;2.03;;
48963;SDS011;34776;48.180;16.420;2023-07-31T16:45:23;3.97;;;1.90;;
48963;SDS011;34776;48.180;16.420;2023-07-31T16:47:48;2.78;;;1.95;;
48963;SDS011;34776;48.180;16.420;2023-07-31T16:50:13;3.17;;;1.90;;
48963;SDS011;34776;48.180;16.420;2023-07-31T16:52:39;1.95;;;1.70;;
48963;SDS011;34776;48.180;16.420;2023-07-31T16:55:06;2.22;;;1.65;;
48963;SDS011;34776;48.180;16.420;2023-07-31T16:57:33;3.33;;;1.83;;
48963;SDS011;34776;48.180;16.420;2023-07-31T16:59:58;3.08;;;1.88;;
48963;SDS011;34776;48.180;16.420;2023-07-31T17:02:27;2.63;;;2.13;;
48963;SDS011;34776;48.180;16.420;2023-07-31T17:04:52;5.38;;;2.05;;
48963;SDS011;34776;48.180;16.420;2023-07-31T17:07:17;3.72;;;2.22;;
48963;SDS011;34776;48.180;16.420;2023-07-31T17:09:45;4.65;;;2.80;;
48963;SDS011;34776;48.180;16.420;2023-07-31T17:12:11;4.88;;;2.42;;
48963;SDS011;34776;48.180;16.420;2023-07-31T17:14:36;7.22;;;2.60;;
48963;SDS011;34776;48.180;16.420;2023-07-31T17:17:03;3.55;;;2.10;;
48963;SDS011;34776;48.180;16.420;2023-07-31T17:19:29;2.20;;;1.52;;
48963;SDS011;34776;48.180;16.420;2023-07-31T17:21:54;2.47;;;1.70;;
48963;SDS011;34776;48.180;16.420;2023-07-31T17:24:20;3.63;;;1.67;;
48963;SDS011;34776;48.180;16.420;2023-07-31T17:26:45;2.85;;;1.80;;
48963;SDS011;34776;48.180;16.420;2023-07-31T17:29:14;2.97;;;1.73;;
48963;SDS011;34776;48.180;16.420;2023-07-31T17:31:41;3.72;;;1.60;;
48963;SDS011;34776;48.180;16.420;2023-07-31T17:34:08;4.22;;;1.98;;
48963;SDS011;34776;48.180;16.420;2023-07-31T17:36:35;3.33;;;2.05;;
48963;SDS011;34776;48.180;16.420;2023-07-31T17:39:00;4.63;;;2.20;;
48963;SDS011;34776;48.180;16.420;2023-07-31T17:41:26;5.15;;;2.20;;
48963;SDS011;34776;48.180;16.420;2023-07-31T17:43:53;3.30;;;2.03;;
48963;SDS011;34776;48.180;16.420;2023-07-31T17:46:19;2.58;;;1.95;;
48963;SDS011;34776;48.180;16.420;2023-07-31T17:48:44;5.50;;;2.15;;
48963;SDS011;34776;48.180;16.420;2023-07-31T17:51:10;3.88;;;2.08;;
48963;SDS011;34776;48.180;16.420;2023-07-31T17:53:35;4.18;;;2.10;;
48963;SDS011;34776;48.180;16.420;2023-07-31T17:56:00;3.35;;;2.00;;
48963;SDS011;34776;48.180;16.420;2023-07-31T17:58:27;3.55;;;1.80;;
48963;SDS011;34776;48.180;16.420;2023-07-31T18:00:52;3.47;;;2.00;;
48963;SDS011;34776;48.180;16.420;2023-07-31T18:03:19;4.25;;;2.08;;
48963;SDS011;34776;48.180;16.420;2023-07-31T18:05:46;3.58;;;1.85;;
48963;SDS011;34776;48.180;16.420;2023-07-31T18:08:11;3.00;;;1.80;;
48963;SDS011;34776;48.180;16.420;2023-07-31T18:10:42;2.72;;;2.00;;
48963;SDS011;34776;48.180;16.420;2023-07-31T18:13:09;3.13;;;2.08;;
48963;SDS011;34776;48.180;16.420;2023-07-31T18:15:34;3.08;;;2.08;;
48963;SDS011;34776;48.180;16.420;2023-07-31T18:17:59;3.40;;;2.20;;
48963;SDS011;34776;48.180;16.420;2023-07-31T18:20:25;4.03;;;2.30;;
48963;SDS011;34776;48.180;16.420;2023-07-31T18:22:51;5.05;;;2.40;;
48963;SDS011;34776;48.180;16.420;2023-07-31T18:25:17;6.35;;;2.75;;
48963;SDS011;34776;48.180;16.420;2023-07-31T18:27:42;2.72;;;1.85;;
48963;SDS011;34776;48.180;16.420;2023-07-31T18:30:08;6.50;;;2.15;;
48963;SDS011;34776;48.180;16.420;2023-07-31T18:32:35;2.92;;;2.30;;
48963;SDS011;34776;48.180;16.420;2023-07-31T18:35:01;6.38;;;2.30;;
48963;SDS011;34776;48.180;16.420;2023-07-31T18:37:26;4.75;;;2.17;;
48963;SDS011;34776;48.180;16.420;2023-07-31T18:39:52;3.45;;;2.40;;
48963;SDS011;34776;48.180;16.420;2023-07-31T18:42:17;2.83;;;2.20;;
48963;SDS011;34776;48.180;16.420;2023-07-31T18:44:42;7.18;;;2.42;;
48963;SDS011;34776;48.180;16.420;2023-07-31T18:47:08;4.60;;;2.30;;
48963;SDS011;34776;48.180;16.420;2023-07-31T18:49:33;3.45;;;2.80;;
48963;SDS011;34776;48.180;16.420;2023-07-31T18:51:58;5.55;;;2.80;;
48963;SDS011;34776;48.180;16.420;2023-07-31T18:54:24;7.22;;;2.35;;
48963;SDS011;34776;48.180;16.420;2023-07-31T18:56:49;3.17;;;2.40;;
48963;SDS011;34776;48.180;16.420;2023-07-31T18:59:14;2.88;;;2.05;;
48963;SDS011;34776;48.180;16.420;2023-07-31T19:01:40;2.65;;;2.30;;
48963;SDS011;34776;48.180;16.420;2023-07-31T19:04:08;3.70;;;2.40;;
48963;SDS011;34776;48.180;16.420;2023-07-31T19:06:34;2.55;;;2.00;;
48963;SDS011;34776;48.180;16.420;2023-07-31T19:09:01;3.53;;;2.83;;
48963;SDS011;34776;48.180;16.420;2023-07-31T19:11:26;4.45;;;2.53;;
48963;SDS011;34776;48.180;16.420;2023-07-31T19:13:51;4.20;;;2.30;;
48963;SDS011;34776;48.180;16.420;2023-07-31T19:16:17;5.22;;;3.28;;
48963;SDS011;34776;48.180;16.420;2023-07-31T19:18:43;4.03;;;2.53;;
48963;SDS011;34776;48.180;16.420;2023-07-31T19:21:10;4.90;;;2.38;;
48963;SDS011;34776;48.180;16.420;2023-07-31T19:23:35;3.25;;;2.40;;
48963;SDS011;34776;48.180;16.420;2023-07-31T19:26:01;3.42;;;2.25;;
48963;SDS011;34776;48.180;16.420;2023-07-31T19:28:27;3.97;;;2.42;;
48963;SDS011;34776;48.180;16.420;2023-07-31T19:30:53;6.13;;;3.35;;
48963;SDS011;34776;48.180;16.420;2023-07-31T19:33:18;4.20;;;2.63;;
48963;SDS011;34776;48.180;16.420;2023-07-31T19:35:43;5.18;;;2.72;;
48963;SDS011;34776;48.180;16.420;2023-07-31T19:38:08;4.65;;;2.70;;
48963;SDS011;34776;48.180;16.420;2023-07-31T19:40:34;5.70;;;2.65;;
48963;SDS011;34776;48.180;16.420;2023-07-31T19:42:59;3.85;;;2.67;;
48963;SDS011;34776;48.180;16.420;2023-07-31T19:45:28;3.28;;;2.15;;
48963;SDS011;34776;48.180;16.420;2023-07-31T19:47:55;6.63;;;3.08;;
48963;SDS011;34776;48.180;16.420;2023-07-31T19:50:20;4.03;;;3.00;;
48963;SDS011;34776;48.180;16.420;2023-07-31T19:52:46;5.18;;;3.28;;
48963;SDS011;34776;48.180;16.420;2023-07-31T19:55:11;5.18;;;3.25;;
48963;SDS011;34776;48.180;16.420;2023-07-31T19:57:36;4.97;;;3.17;;
48963;SDS011;34776;48.180;16.420;2023-07-31T20:00:02;6.55;;;2.80;;
48963;SDS011;34776;48.180;16.420;2023-07-31T20:02:29;3.47;;;2.60;;
48963;SDS011;34776;48.180;16.420;2023-07-31T20:04:54;3.85;;;2.70;;
48963;SDS011;34776;48.180;16.420;2023-07-31T20:07:20;4.53;;;3.00;;
48963;SDS011;34776;48.180;16.420;2023-07-31T20:09:45;4.28;;;2.70;;
48963;SDS011;34776;48.180;16.420;2023-07-31T20:12:10;7.95;;;2.67;;
48963;SDS011;34776;48.180;16.420;2023-07-31T20:14:35;3.17;;;2.83;;
48963;SDS011;34776;48.180;16.420;2023-07-31T20:17:02;2.92;;;2.55;;
48963;SDS011;34776;48.180;16.420;2023-07-31T20:19:28;3.38;;;2.55;;
48963;SDS011;34776;48.180;16.420;2023-07-31T20:21:53;4.15;;;2.65;;
48963;SDS011;34776;48.180;16.420;2023-07-31T20:24:21;4.05;;;2.67;;
48963;SDS011;34776;48.180;16.420;2023-07-31T20:26:46;3.50;;;2.22;;
48963;SDS011;34776;48.180;16.420;2023-07-31T20:29:11;7.97;;;2.47;;
48963;SDS011;34776;48.180;16.420;2023-07-31T20:31:37;3.92;;;2.78;;
48963;SDS011;34776;48.180;16.420;2023-07-31T20:34:06;5.90;;;2.80;;
48963;SDS011;34776;48.180;16.420;2023-07-31T20:36:36;3.17;;;2.40;;
48963;SDS011;34776;48.180;16.420;2023-07-31T20:39:02;3.35;;;2.50;;
48963;SDS011;34776;48.180;16.420;2023-07-31T20:41:32;2.85;;;2.47;;
48963;SDS011;34776;48.180;16.420;2023-07-31T20:43:58;4.07;;;2.28;;
48963;SDS011;34776;48.180;16.420;2023-07-31T20:46:23;2.92;;;2.67;;
48963;SDS011;34776;48.180;16.420;2023-07-31T20:48:48;4.47;;;2.80;;
48963;SDS011;34776;48.180;16.420;2023-07-31T20:51:14;3.15;;;2.40;;
48963;SDS011;34776;48.180;16.420;2023-07-31T20:53:39;5.63;;;3.08;;
48963;SDS011;34776;48.180;16.420;2023-07-31T20:56:05;4.03;;;3.00;;
48963;SDS011;34776;48.180;16.420;2023-07-31T20:58:31;6.57;;;3.40;;
48963;SDS011;34776;48.180;16.420;2023-07-31T21:00:57;6.57;;;2.97;;
48963;SDS011;34776;48.180;16.420;2023-07-31T21:03:22;3.40;;;2.65;;
48963;SDS011;34776;48.180;16.420;2023-07-31T21:05:51;3.20;;;2.78;;
48963;SDS011;34776;48.180;16.420;2023-07-31T21:08:18;8.55;;;2.60;;
48963;SDS011;34776;48.180;16.420;2023-07-31T21:10:43;5.15;;;2.97;;
48963;SDS011;34776;48.180;16.420;2023-07-31T21:13:09;3.00;;;2.70;;
48963;SDS011;34776;48.180;16.420;2023-07-31T21:15:38;3.35;;;2.83;;
48963;SDS011;34776;48.180;16.420;2023-07-31T21:18:04;4.03;;;3.35;;
48963;SDS011;34776;48.180;16.420;2023-07-31T21:20:31;7.68;;;3.15;;
48963;SDS011;34776;48.180;16.420;2023-07-31T21:22:57;4.63;;;3.03;;
48963;SDS011;34776;48.180;16.420;2023-07-31T21:25:34;5.50;;;3.05;;
48963;SDS011;34776;48.180;16.420;2023-07-31T21:28:00;4.07;;;2.70;;
48963;SDS011;34776;48.180;16.420;2023-07-31T21:30:25;5.63;;;3.30;;
48963;SDS011;34776;48.180;16.420;2023-07-31T21:32:51;4.32;;;2.63;;
48963;SDS011;34776;48.180;16.420;2023-07-31T21:35:17;6.15;;;2.88;;
48963;SDS011;34776;48.180;16.420;2023-07-31T21:37:43;3.72;;;2.80;;
48963;SDS011;34776;48.180;16.420;2023-07-31T21:40:08;3.63;;;2.70;;
48963;SDS011;34776;48.180;16.420;2023-07-31T21:42:37;5.38;;;3.00;;
48963;SDS011;34776;48.180;16.420;2023-07-31T21:45:03;3.08;;;2.65;;
48963;SDS011;34776;48.180;16.420;2023-07-31T21:47:29;5.38;;;2.80;;
48963;SDS011;34776;48.180;16.420;2023-07-31T21:49:54;4.72;;;3.10;;
48963;SDS011;34776;48.180;16.420;2023-07-31T21:52:20;4.20;;;2.95;;
48963;SDS011;34776;48.180;16.420;2023-07-31T21:54:46;3.03;;;2.63;;
48963;SDS011;34776;48.180;16.420;2023-07-31T21:57:11;5.22;;;3.03;;
48963;SDS011;34776;48.180;16.420;2023-07-31T21:59:37;5.03;;;3.40;;
48963;SDS011;34776;48.180;16.420;2023-07-31T22:02:03;4.97;;;3.20;;
48963;SDS011;34776;48.180;16.420;2023-07-31T22:04:29;5.10;;;3.25;;
48963;SDS011;34776;48.180;16.420;2023-07-31T22:06:54;3.15;;;2.85;;
48963;SDS011;34776;48.180;16.420;2023-07-31T22:09:19;3.20;;;2.90;;
48963;SDS011;34776;48.180;16.420;2023-07-31T22:11:45;5.57;;;3.15;;
48963;SDS011;34776;48.180;16.420;2023-07-31T22:14:11;4.25;;;2.83;;
48963;SDS011;34776;48.180;16.420;2023-07-31T22:16:36;6.25;;;3.10;;
48963;SDS011;34776;48.180;16.420;2023-07-31T22:19:02;3.28;;;2.83;;
48963;SDS011;34776;48.180;16.420;2023-07-31T22:21:27;3.13;;;2.67;;
48963;SDS011;34776;48.180;16.420;2023-07-31T22:23:52;4.25;;;3.20;;
48963;SDS011;34776;48.180;16.420;2023-07-31T22:26:18;5.07;;;3.20;;
48963;SDS011;34776;48.180;16.420;2023-07-31T22:28:43;4.60;;;2.90;;
48963;SDS011;34776;48.180;16.420;2023-07-31T22:31:08;4.43;;;2.90;;
48963;SDS011;34776;48.180;16.420;2023-07-31T22:33:35;4.53;;;2.75;;
48963;SDS011;34776;48.180;16.420;2023-07-31T22:36:00;3.00;;;2.70;;
48963;SDS011;34776;48.180;16.420;2023-07-31T22:38:26;3.05;;;2.75;;
48963;SDS011;34776;48.180;16.420;2023-07-31T22:40:51;4.15;;;3.20;;
48963;SDS011;34776;48.180;16.420;2023-07-31T22:43:16;7.03;;;2.80;;
48963;SDS011;34776;48.180;16.420;2023-07-31T22:45:45;6.32;;;2.90;;
48963;SDS011;34776;48.180;16.420;2023-07-31T22:48:11;2.95;;;2.60;;
48963;SDS011;34776;48.180;16.420;2023-07-31T22:50:36;3.42;;;2.80;;
48963;SDS011;34776;48.180;16.420;2023-07-31T22:53:03;4.63;;;3.10;;
48963;SDS011;34776;48.180;16.420;2023-07-31T22:55:31;3.97;;;2.75;;
48963;SDS011;34776;48.180;16.420;2023-07-31T22:57:57;3.53;;;2.60;;
48963;SDS011;34776;48.180;16.420;2023-07-31T23:00:22;3.25;;;2.63;;
48963;SDS011;34776;48.180;16.420;2023-07-31T23:02:47;4.32;;;2.90;;
48963;SDS011;34776;48.180;16.420;2023-07-31T23:05:14;4.55;;;2.60;;
48963;SDS011;34776;48.180;16.420;2023-07-31T23:07:39;2.90;;;2.47;;
48963;SDS011;34776;48.180;16.420;2023-07-31T23:10:05;3.47;;;2.97;;
48963;SDS011;34776;48.180;16.420;2023-07-31T23:12:31;10.30;;;4.10;;
48963;SDS011;34776;48.180;16.420;2023-07-31T23:14:56;5.65;;;3.30;;
48963;SDS011;34776;48.180;16.420;2023-07-31T23:17:21;3.75;;;2.70;;
48963;SDS011;34776;48.180;16.420;2023-07-31T23:19:47;3.97;;;2.67;;